Terminal Aerodrome Forecast
Issued by NWS

Home | Current Version | Previous Version | Text Only | Print | Product List | Glossary On
Versions: 1 2 3 4 5 6 7 8 9 10 11 12 13 14 15 16 17 18 19 20 21 22 23 24 25 26 27 28 29 30
104
FTUS41 KBTV 261121
TAFSLK
TAF
KSLK 261121Z 2612/2712 26010G20KT P6SM VCSH BKN025
     FM261600 28013G23KT P6SM BKN030
     FM262300 24006KT P6SM SCT030
     FM270800 23006KT P6SM BKN030=

USA.gov is the U.S. government's official web portal to all federal, state and local government web resources and services.